Shaw A F B, South Carolina
Current Conditions -  °F | °C
As of 12:58 AM on Thursday 23 Oct 2014 (Local Time) from KSSC Reporting Station
Clear Clear  
Wind Chill: 51°   Ceiling: Unl
Heat Index: 51°   Visibility: 10mi
Dew Point: 43°   Wind: 3mph
Humidity: 73%   Direction: NA
Pressure: 30.08"   Gusts: NA
Location:  33.9803°N, 80.4811°W
Report Text: KSSC 230458Z AUTO VRB03KT 10SM CLR 11/06 A3008 RMK AO2 SLP187 T01060060 402010085 $
Loading
Personal Weather Stations






























Interactive Weather Map
Tropical Storm Tracking
New forecast layout! Learn more

10-Day Weather Forecast

Advertisements
Track Severe Weather on mobile